Time;durP1;ratioP1;P1;durP2;ratioP2;P2;SDS_P1;SDS_P2;PMS_P1;PMS_P2;Temp;Humidity;BMP_temperature;BMP_pressure;BME280_temperature;BME280_humidity;BME280_pressure;Samples;Min_cycle;Max_cycle;Signal;HPM_P1;HPM_P2
2021/01/18 05:39:25;;;;;;;18.17;13.22;;;;;;;-20.25;100.00;99431.30;1731559;78;21233;-74
2021/01/18 05:45:30;;;;;;;30.83;19.20;;;;;;;-20.33;100.00;99437.16;1818159;77;23192;-75
2021/01/18 05:48:50;;;;;;;;;;;;;;;;;;;;;
2021/01/18 05:52:05;;;;;;;;;;;;;;;;;;;;;
2021/01/18 07:06:42;;;;;;;36.93;21.07;;;;;;;-20.01;100.00;99521.42;1688864;78;21259;-73
2021/01/18 08:05:35;;;;;;;31.73;18.30;;;;;;;-17.96;100.00;99548.95;1714828;82;21062;-76
2021/01/18 08:20:24;;;;;;;43.20;19.70;;;;;;;-17.46;100.00;99565.30;1713020;81;21175;-78
2021/01/18 08:42:21;;;;;;;53.28;26.10;;;;;;;-16.68;100.00;99582.65;1734040;76;21227;31
2021/01/18 11:05:13;;;;;;;20.23;13.90;;;;;;;-14.44;87.30;99541.06;1721457;77;21319;-72
2021/01/18 11:08:27;;;;;;;37.58;18.00;;;;;;;-14.13;85.21;99535.63;1673687;81;21290;-76
2021/01/18 11:12:03;;;;;;;;;;;;;;;;;;;;;
2021/01/18 11:49:53;;;;;;;48.55;23.60;;;;;;;-14.19;83.69;99519.24;1818925;77;21531;-76
2021/01/18 13:14:49;;;;;;;65.12;31.50;;;;;;;-14.04;81.87;99533.73;1701663;79;21163;-74
2021/01/18 13:17:42;;;;;;;95.38;39.98;;;;;;;-14.12;82.28;99530.01;1675367;83;21955;-74
2021/01/18 13:22:09;;;;;;;;;;;;;;;;;;;;;
2021/01/18 13:43:31;;;;;;;46.00;23.12;;;;;;;-14.69;85.16;99547.30;1712995;78;21927;31
2021/01/18 13:46:29;;;;;;;51.58;27.17;;;;;;;-14.93;86.76;99552.64;1687260;82;21197;-74
2021/01/18 14:07:50;;;;;;;21.68;15.95;;;;;;;-16.20;94.24;99570.62;1682526;80;21080;-74
2021/01/18 14:10:39;;;;;;;28.07;16.32;;;;;;;-16.33;94.71;99576.53;1670138;84;21159;-76
2021/01/18 14:13:21;;;;;;;26.02;14.65;;;;;;;-16.45;95.72;99570.31;1675524;83;21322;-75
2021/01/18 14:16:05;;;;;;;29.98;17.98;;;;;;;-16.60;96.51;99571.96;1674458;84;21233;-75
2021/01/18 14:18:54;;;;;;;23.40;16.87;;;;;;;-16.78;97.54;99575.05;1646833;85;21253;-76
2021/01/18 17:31:45;;;;;;;;;;;;;;;;;;;;;
2021/01/18 17:34:45;;;;;;;34.10;21.60;;;;;;;-20.40;100.00;99615.72;1642229;86;21224;-77
2021/01/18 17:37:34;;;;;;;38.17;21.13;;;;;;;-20.46;100.00;99616.79;1657448;86;21256;-75
2021/01/18 17:40:07;;;;;;;;;;;;;;;-20.44;100.00;99628.23;1648044;86;21653;-76
2021/01/18 17:43:22;;;;;;;45.80;24.77;;;;;;;-20.44;100.00;99620.13;1630341;85;20636;-77
2021/01/18 17:46:02;;;;;;;28.60;19.23;;;;;;;-20.45;100.00;99626.13;1624176;87;21321;-74
2021/01/18 18:43:33;;;;;;;31.43;18.77;;;;;;;-20.42;100.00;99634.94;1807616;77;21212;-76
2021/01/18 18:54:08;;;;;;;17.93;14.80;;;;;;;-19.92;100.00;99641.11;1810991;77;21183;-75
2021/01/18 18:57:05;;;;;;;69.87;22.07;;;;;;;-19.67;100.00;99636.31;1790380;78;21283;-76
2021/01/18 18:59:52;;;;;;;42.38;23.10;;;;;;;-19.53;100.00;99649.80;1753714;81;20982;-75
2021/01/18 19:13:17;;;;;;;20.67;16.03;;;;;;;-19.07;100.00;99659.42;1779597;78;22928;-76
2021/01/18 19:16:09;;;;;;;40.85;24.30;;;;;;;-19.05;100.00;99664.02;1791576;80;20990;-75
2021/01/18 19:18:59;;;;;;;23.42;15.23;;;;;;;-18.97;100.00;99661.97;1779494;80;22682;-76
2021/01/18 19:21:35;;;;;;;42.95;21.75;;;;;;;-18.89;100.00;99663.73;1762502;80;21057;-75
2021/01/18 19:24:18;;;;;;;32.75;19.57;;;;;;;-18.86;100.00;99662.78;1748659;80;21605;-74
2021/01/18 19:26:59;;;;;;;21.10;16.67;;;;;;;-18.82;100.00;99671.55;1714960;83;20938;-74
2021/01/18 19:30:06;;;;;;;28.15;18.27;;;;;;;-18.84;100.00;99666.94;1724715;83;21041;-76
2021/01/18 19:34:32;;;;;;;;;;;;;;;;;;;;;
2021/01/18 19:37:44;;;;;;;25.90;18.07;;;;;;;-18.75;100.00;99682.33;1604091;88;21659;-74
2021/01/18 19:51:11;;;;;;;75.40;33.77;;;;;;;-18.63;100.00;99674.57;1766333;79;23333;-75
2021/01/18 19:56:35;;;;;;;106.90;45.17;;;;;;;-18.61;100.00;99679.19;1811780;79;22831;-75
2021/01/18 19:59:03;;;;;;;99.40;39.08;;;;;;;-18.60;100.00;99681.66;1723542;83;21467;-75
2021/01/18 20:01:43;;;;;;;63.02;29.23;;;;;;;-18.60;100.00;99681.66;1728586;82;21814;-74
2021/01/18 20:04:16;;;;;;;41.77;22.75;;;;;;;-18.57;100.00;99681.97;1703627;84;20968;-74
2021/01/18 20:06:50;;;;;;;59.80;27.70;;;;;;;-18.50;100.00;99686.38;1702483;84;21086;-73
2021/01/18 20:09:18;;;;;;;57.03;28.07;;;;;;;-18.50;100.00;99679.53;1703090;84;21028;-73
2021/01/18 20:11:53;;;;;;;35.68;19.57;;;;;;;-18.47;100.00;99681.95;1703901;84;21007;-73
2021/01/18 20:14:24;;;;;;;57.95;29.37;;;;;;;-18.46;100.00;99677.22;1704059;84;22110;-74
2021/01/18 20:16:52;;;;;;;79.67;32.17;;;;;;;-18.42;100.00;99680.47;1704032;84;21568;-74
2021/01/18 20:19:27;;;;;;;117.72;41.30;;;;;;;-18.40;100.00;99674.83;1703961;84;21194;-73
2021/01/18 20:21:55;;;;;;;63.60;29.60;;;;;;;-18.38;100.00;99686.67;1732551;82;21589;-74
2021/01/18 20:24:23;;;;;;;56.00;28.80;;;;;;;-18.36;100.00;99680.20;1723453;82;21098;-74
2021/01/18 20:26:53;;;;;;;99.97;37.17;;;;;;;-18.33;100.00;99671.55;1709300;82;21161;-74
2021/01/18 20:29:21;;;;;;;76.77;31.70;;;;;;;-18.28;100.00;99677.30;1685723;84;21186;-74
2021/01/18 20:31:52;;;;;;;71.70;28.50;;;;;;;-18.25;100.00;99671.58;1707964;82;21145;-74
2021/01/18 20:34:24;;;;;;;55.33;25.12;;;;;;;-18.22;100.00;99672.74;1679826;84;21248;-73
2021/01/18 20:37:13;;;;;;;72.58;31.05;;;;;;;-18.19;100.00;99672.59;1698420;82;21157;-73
2021/01/18 20:39:45;;;;;;;58.13;23.85;;;;;;;-18.13;100.00;99664.25;1545120;91;21514;-74
2021/01/18 20:52:55;;;;;;;39.60;19.60;;;;;;;-17.85;100.00;99658.70;1825007;76;21972;-76
2021/01/18 20:55:32;;;;;;;43.45;19.70;;;;;;;-17.83;100.00;99670.97;1805150;79;22152;-76
2021/01/18 20:58:08;;;;;;;49.03;24.27;;;;;;;-17.78;100.00;99665.98;1803947;79;21801;-75
2021/01/18 21:00:49;;;;;;;48.78;22.07;;;;;;;-17.73;100.00;99667.88;1804554;79;21008;-75
2021/01/18 21:03:24;;;;;;;21.07;16.12;;;;;;;-17.69;100.00;99671.13;1801399;79;21555;-75
2021/01/18 21:05:52;;;;;;;;;;;;;;;-17.66;100.00;99676.13;1805380;79;21128;-76
2021/01/18 21:08:29;;;;;;;45.00;23.95;;;;;;;-17.65;100.00;99666.23;1803601;79;20498;-75
2021/01/18 21:11:04;;;;;;;46.13;23.50;;;;;;;-17.64;100.00;99668.34;1804406;79;21807;-74
2021/01/18 21:13:34;;;;;;;35.17;19.30;;;;;;;-17.62;100.00;99669.92;1783039;79;21148;-74
2021/01/18 21:16:04;;;;;;;36.55;20.80;;;;;;;-17.61;100.00;99660.06;1806254;79;20891;-74
2021/01/18 21:19:08;;;;;;;25.20;17.77;;;;;;;-17.56;100.00;99667.09;1805667;79;21615;-74
2021/01/18 21:21:38;;;;;;;43.28;18.62;;;;;;;-17.56;100.00;99659.39;1804578;79;21611;-74
2021/01/18 21:24:48;;;;;;;32.83;18.57;;;;;;;-17.52;100.00;99659.60;1804216;79;25972;-75
2021/01/18 21:43:27;;;;;;;33.92;17.32;;;;;;;-17.43;100.00;99673.73;1814692;76;21050;-74
2021/01/18 21:46:02;;;;;;;24.40;16.15;;;;;;;-17.41;100.00;99672.39;1790271;79;21141;-76
2021/01/18 22:02:51;;;;;;;29.80;17.43;;;;;;;-17.35;100.00;99669.05;1759661;77;22743;-74
2021/01/18 22:05:19;;;;;;;28.12;17.35;;;;;;;-17.39;100.00;99670.55;1695196;82;21212;-74
2021/01/18 22:07:50;;;;;;;23.32;18.48;;;;;;;-17.41;100.00;99667.26;1725768;82;21330;-74
2021/01/18 22:10:49;;;;;;;29.20;18.57;;;;;;;-17.41;100.00;99665.52;1882519;75;26116;-73
2021/01/18 22:13:22;;;;;;;25.45;16.55;;;;;;;-17.47;100.00;99670.11;1848222;77;20912;-73
2021/01/18 22:26:33;;;;;;;31.67;16.33;;;;;;;-17.64;100.00;99662.75;1823677;77;22690;-74
2021/01/18 22:29:18;;;;;;;14.45;12.93;;;;;;;-17.70;100.00;99665.63;1755377;81;20993;-74
2021/01/18 22:31:53;;;;;;;38.58;23.35;;;;;;;-17.75;100.00;99665.02;1755348;81;21871;-74
2021/01/18 22:34:26;;;;;;;31.93;18.87;;;;;;;-17.81;100.00;99666.14;1755324;81;20898;-74
2021/01/18 22:39:49;;;;;;;38.43;18.77;;;;;;;-17.88;100.00;99658.81;1792013;78;22737;-76
2021/01/18 22:42:26;;;;;;;32.73;19.77;;;;;;;-18.00;100.00;99664.91;1791361;80;21473;-75
2021/01/18 22:45:12;;;;;;;;;;;;;;;-18.05;100.00;99656.60;1793438;80;21469;-75
2021/01/18 22:47:40;;;;;;;31.95;19.98;;;;;;;-18.10;100.00;99659.83;1791331;80;20500;-73
2021/01/18 22:50:12;;;;;;;32.10;19.17;;;;;;;-18.20;100.00;99658.14;1791246;80;21006;-73
2021/01/18 22:52:41;;;;;;;23.57;17.23;;;;;;;-18.29;100.00;99663.67;1785368;80;21592;-73
2021/01/18 22:55:13;;;;;;;27.50;16.07;;;;;;;-18.37;100.00;99664.44;1788519;80;21561;-74
2021/01/18 22:57:49;;;;;;;21.97;15.08;;;;;;;-18.45;100.00;99664.78;1762619;80;21636;-73
2021/01/18 23:00:21;;;;;;;19.60;15.10;;;;;;;-18.48;100.00;99670.51;1791167;79;21126;-75
2021/01/18 23:02:49;;;;;;;23.60;16.37;;;;;;;-18.49;100.00;99667.55;1790603;80;21010;-75
2021/01/18 23:05:17;;;;;;;;;;;;;;;-18.51;100.00;99668.09;1793857;80;21002;-73
2021/01/18 23:07:46;;;;;;;39.50;21.45;;;;;;;-18.53;100.00;99670.70;1791245;80;20167;-73
2021/01/18 23:10:18;;;;;;;42.80;24.18;;;;;;;-18.56;100.00;99671.30;1791180;80;21850;-75
2021/01/18 23:12:46;;;;;;;;;;;;;;;-18.61;100.00;99659.52;1793881;80;21189;-77
2021/01/18 23:15:19;;;;;;;34.13;20.35;;;;;;;-18.63;100.00;99666.89;1791214;80;20138;-75
2021/01/18 23:17:50;;;;;;;25.80;19.60;;;;;;;-18.65;100.00;99666.95;1763836;80;21010;-75
2021/01/18 23:20:18;;;;;;;24.70;18.98;;;;;;;-18.66;100.00;99665.75;1775561;79;20978;-75
2021/01/18 23:22:46;;;;;;;;;;;;;;;-18.65;100.00;99663.56;1793847;79;21181;-74
2021/01/18 23:25:23;;;;;;;37.70;19.73;;;;;;;-18.64;100.00;99655.83;1791173;80;20496;-74
2021/01/18 23:27:51;;;;;;;33.95;20.95;;;;;;;-18.65;100.00;99655.42;1791230;80;21054;-74
2021/01/18 23:30:22;;;;;;;;;;;;;;;-18.70;100.00;99650.95;1793835;78;21592;-74
2021/01/18 23:32:50;;;;;;;20.68;13.95;;;;;;;-18.74;100.00;99649.42;1790949;80;20139;-74
2021/01/18 23:35:19;;;;;;;31.93;19.60;;;;;;;-18.74;100.00;99654.99;1757172;81;21554;-74
2021/01/18 23:37:47;;;;;;;22.85;17.95;;;;;;;-18.73;100.00;99654.94;1734011;82;21119;-74
2021/01/18 23:40:16;;;;;;;17.50;15.32;;;;;;;-18.72;100.00;99651.47;1713957;83;20957;-74
2021/01/18 23:42:45;;;;;;;32.45;18.02;;;;;;;-18.68;100.00;99651.73;1713980;83;21479;-74
2021/01/18 23:45:14;;;;;;;32.80;18.95;;;;;;;-18.66;100.00;99649.94;1714040;83;20885;-74
2021/01/18 23:47:46;;;;;;;41.08;20.55;;;;;;;-18.67;100.00;99644.88;1713940;83;21377;-74
2021/01/18 23:50:17;;;;;;;35.95;23.87;;;;;;;-18.69;100.00;99645.38;1688694;82;21027;-73
2021/01/18 23:52:46;;;;;;;43.92;23.15;;;;;;;-18.73;100.00;99646.44;1730930;82;20991;-74
2021/01/18 23:55:15;;;;;;;44.83;23.35;;;;;;;-18.76;100.00;99641.03;1741224;82;21510;-74
